createdAt,value
2023-04-02T00:00:11.289Z,12.84
2023-04-02T00:03:01.994Z,12.37
2023-04-02T00:05:51.039Z,12.29
2023-04-02T00:08:23.837Z,13.27
2023-04-02T00:10:54.345Z,14.09
2023-04-02T00:13:32.520Z,14.71
2023-04-02T00:16:00.575Z,15.19
2023-04-02T00:18:27.982Z,15.54
2023-04-02T00:21:09.543Z,15.83
2023-04-02T00:23:39.700Z,16.11
2023-04-02T00:26:31.893Z,16.35
2023-04-02T00:29:01.489Z,16.27
2023-04-02T00:31:29.670Z,15.35
2023-04-02T00:33:58.549Z,14.47
2023-04-02T00:36:30.528Z,13.81
2023-04-02T00:39:00.356Z,13.21
2023-04-02T00:41:31.184Z,12.66
2023-04-02T00:44:01.416Z,12.45
2023-04-02T00:46:47.391Z,13.19
2023-04-02T00:49:37.146Z,14.04
2023-04-02T00:52:17.316Z,14.62
2023-04-02T00:55:07.284Z,15.00
2023-04-02T00:57:34.310Z,15.30
2023-04-02T01:00:16.209Z,15.61
2023-04-02T01:02:43.287Z,15.91
2023-04-02T01:05:16.955Z,16.11
2023-04-02T01:07:56.224Z,16.03
2023-04-02T01:10:29.026Z,15.06
2023-04-02T01:13:14.581Z,14.10
2023-04-02T01:16:27.636Z,13.32
2023-04-02T01:19:46.987Z,12.63
2023-04-02T01:22:19.518Z,12.62
2023-04-02T01:24:47.813Z,13.40
2023-04-02T01:27:29.304Z,13.99
2023-04-02T01:29:59.385Z,14.51
2023-04-02T01:32:29.021Z,15.03
2023-04-02T01:35:08.738Z,15.44
2023-04-02T01:37:51.856Z,15.73
2023-04-02T01:40:39.935Z,15.99
2023-04-02T01:43:25.935Z,16.24
2023-04-02T01:45:58.225Z,16.43
2023-04-02T01:48:35.111Z,16.27
2023-04-02T01:51:09.314Z,15.22
2023-04-02T01:53:41.097Z,14.19
2023-04-02T01:56:11.296Z,13.41
2023-04-02T01:58:40.084Z,13.03
2023-04-02T02:01:19.341Z,13.60
2023-04-02T02:03:46.810Z,14.31
2023-04-02T02:06:16.684Z,14.74
2023-04-02T02:08:51.540Z,15.01
2023-04-02T02:11:24.620Z,15.20
2023-04-02T02:13:56.402Z,15.39
2023-04-02T02:16:24.743Z,15.63
2023-04-02T02:18:55.806Z,15.84
2023-04-02T02:21:27.805Z,15.96
2023-04-02T02:23:56.324Z,15.93
2023-04-02T02:26:24.548Z,16.00
2023-04-02T02:28:54.523Z,16.05
2023-04-02T02:31:31.375Z,16.11
2023-04-02T02:34:06.586Z,16.22
2023-04-02T02:36:53.068Z,16.05
2023-04-02T02:39:26.327Z,14.95
2023-04-02T02:42:01.057Z,13.96
2023-04-02T02:44:32.452Z,13.20
2023-04-02T02:47:03.811Z,12.87
2023-04-02T02:49:40.202Z,13.59
2023-04-02T02:52:16.322Z,14.41
2023-04-02T02:54:54.965Z,14.97
2023-04-02T02:57:34.337Z,15.27
2023-04-02T03:00:03.962Z,15.52
2023-04-02T03:02:31.027Z,15.73
2023-04-02T03:04:58.691Z,15.91
2023-04-02T03:07:27.731Z,16.03
2023-04-02T03:10:12.976Z,16.13
2023-04-02T03:13:01.173Z,16.23
2023-04-02T03:15:46.390Z,16.08
2023-04-02T03:18:35.821Z,14.97
2023-04-02T03:21:27.179Z,13.89
2023-04-02T03:24:01.657Z,13.12
2023-04-02T03:26:41.235Z,12.58
2023-04-02T03:29:42.044Z,12.37
2023-04-02T03:32:24.628Z,13.35
2023-04-02T03:34:59.971Z,14.22
2023-04-02T03:37:52.861Z,14.86
2023-04-02T03:40:25.096Z,15.46
2023-04-02T03:42:58.712Z,15.80
2023-04-02T03:45:32.741Z,16.08
2023-04-02T03:48:04.009Z,16.30
2023-04-02T03:50:46.093Z,16.50
2023-04-02T03:53:13.344Z,16.67
2023-04-02T03:55:42.459Z,16.64
2023-04-02T03:58:22.796Z,15.73
2023-04-02T04:01:00.783Z,14.70
2023-04-02T04:03:41.453Z,13.91
2023-04-02T04:06:30.332Z,13.28
2023-04-02T04:09:00.945Z,12.69
2023-04-02T04:11:38.113Z,12.52
2023-04-02T04:14:33.182Z,13.49
2023-04-02T04:17:14.373Z,14.57
2023-04-02T04:19:50.124Z,15.21
2023-04-02T04:22:30.727Z,15.64
2023-04-02T04:24:59.503Z,15.95
2023-04-02T04:28:05.947Z,16.19
2023-04-02T04:30:42.676Z,16.53
2023-04-02T04:33:22.663Z,16.80
2023-04-02T04:35:57.763Z,16.69
2023-04-02T04:38:35.241Z,15.59
2023-04-02T04:41:19.062Z,14.43
2023-04-02T04:43:51.942Z,13.52
2023-04-02T04:46:31.330Z,12.84
2023-04-02T04:49:36.626Z,12.60
2023-04-02T04:52:25.796Z,13.82
2023-04-02T04:54:52.750Z,14.82
2023-04-02T04:57:36.523Z,15.39
2023-04-02T05:00:23.192Z,15.80
2023-04-02T05:03:03.689Z,16.07
2023-04-02T05:05:34.654Z,16.26
2023-04-02T05:08:24.352Z,16.41
2023-04-02T05:11:06.107Z,16.50
2023-04-02T05:13:54.490Z,16.16
2023-04-02T05:16:31.647Z,14.80
2023-04-02T05:19:02.288Z,13.57
2023-04-02T05:21:47.374Z,12.66
2023-04-02T05:24:20.236Z,12.47
2023-04-02T05:26:50.783Z,13.05
2023-04-02T05:29:24.467Z,13.34
2023-04-02T05:32:03.794Z,13.43
2023-04-02T05:34:35.453Z,13.53
2023-04-02T05:37:04.071Z,13.62
2023-04-02T05:39:33.123Z,13.63
2023-04-02T05:42:05.916Z,13.68
2023-04-02T05:44:38.555Z,13.64
2023-04-02T05:47:13.946Z,13.68
2023-04-02T05:50:08.924Z,13.66
2023-04-02T05:53:34.644Z,13.56
2023-04-02T05:56:07.941Z,13.38
2023-04-02T05:58:45.298Z,13.27
2023-04-02T06:01:39.605Z,13.02
2023-04-02T06:04:24.116Z,12.76
2023-04-02T06:07:06.566Z,12.63
2023-04-02T06:09:49.582Z,12.55
2023-04-02T06:12:42.231Z,12.35
2023-04-02T06:15:16.873Z,12.24
2023-04-02T06:17:48.226Z,12.25
2023-04-02T06:20:18.528Z,12.14
2023-04-02T06:22:57.261Z,12.09
2023-04-02T06:25:45.381Z,11.95
2023-04-02T06:28:19.964Z,11.90
2023-04-02T06:30:48.577Z,11.84
2023-04-02T06:33:16.268Z,11.80
2023-04-02T06:35:46.961Z,11.77
2023-04-02T06:38:25.860Z,11.63
2023-04-02T06:41:00.308Z,11.58
2023-04-02T06:43:27.295Z,11.61
2023-04-02T06:45:58.399Z,11.52
2023-04-02T06:48:25.683Z,11.56
2023-04-02T06:50:59.387Z,11.61
2023-04-02T06:53:34.893Z,11.85
2023-04-02T06:56:10.788Z,11.93
2023-04-02T06:58:37.912Z,12.05
2023-04-02T07:01:04.995Z,12.12
2023-04-02T07:03:33.255Z,12.07
2023-04-02T07:06:03.217Z,12.16
2023-04-02T07:08:30.095Z,12.20
2023-04-02T07:10:57.154Z,12.18
2023-04-02T07:13:24.757Z,12.15
2023-04-02T07:15:54.307Z,12.04
2023-04-02T07:18:38.760Z,11.98
2023-04-02T07:21:05.885Z,12.02
2023-04-02T07:23:32.851Z,12.01
2023-04-02T07:25:59.793Z,11.87
2023-04-02T07:28:26.685Z,11.87
2023-04-02T07:30:55.487Z,11.94
2023-04-02T07:33:29.312Z,12.07
2023-04-02T07:35:58.162Z,12.20
2023-04-02T07:38:25.173Z,12.29
2023-04-02T07:40:52.037Z,12.32
2023-04-02T07:43:18.983Z,12.35
2023-04-02T07:45:45.901Z,12.39
2023-04-02T07:48:14.929Z,12.43
2023-04-02T07:50:42.295Z,12.05
2023-04-02T07:53:30.259Z,10.72
2023-04-02T07:55:59.245Z,9.31
2023-04-02T07:58:26.201Z,8.38
2023-04-02T08:00:53.014Z,8.42
2023-04-02T08:03:20.111Z,9.29
2023-04-02T08:05:54.912Z,10.14
2023-04-02T08:08:23.252Z,10.79
2023-04-02T08:10:51.096Z,11.23
2023-04-02T08:13:19.972Z,11.49
2023-04-02T08:15:47.398Z,11.52
2023-04-02T08:18:14.289Z,10.57
2023-04-02T08:20:41.246Z,9.28
2023-04-02T08:23:17.439Z,8.45
2023-04-02T08:25:45.728Z,9.21
2023-04-02T08:28:12.841Z,10.14
2023-04-02T08:30:40.101Z,10.70
2023-04-02T08:33:07.607Z,10.99
2023-04-02T08:35:34.988Z,10.95
2023-04-02T08:38:02.381Z,10.97
2023-04-02T08:40:41.654Z,11.06
2023-04-02T08:43:08.442Z,10.82
2023-04-02T08:46:06.879Z,9.74
2023-04-02T08:48:37.494Z,8.47
2023-04-02T08:51:06.447Z,7.69
2023-04-02T08:53:37.484Z,7.12
2023-04-02T08:56:10.283Z,6.98
2023-04-02T08:58:43.241Z,7.69
2023-04-02T09:01:31.891Z,8.36
2023-04-02T09:03:59.582Z,8.73
2023-04-02T09:06:29.405Z,9.19
2023-04-02T09:08:58.604Z,9.60
2023-04-02T09:11:55.220Z,9.82
2023-04-02T09:14:29.815Z,9.94
2023-04-02T09:17:02.292Z,10.16
2023-04-02T09:19:41.639Z,10.39
2023-04-02T09:22:26.684Z,10.52
2023-04-02T09:24:56.201Z,10.62
2023-04-02T09:27:28.673Z,10.82
2023-04-02T09:30:03.484Z,11.01
2023-04-02T09:32:52.984Z,10.97
2023-04-02T09:35:29.578Z,10.96
2023-04-02T09:38:22.949Z,10.92
2023-04-02T09:40:56.041Z,10.91
2023-04-02T09:43:29.315Z,10.98
2023-04-02T09:46:05.396Z,10.97
2023-04-02T09:48:44.290Z,10.88
2023-04-02T09:51:15.628Z,10.77
2023-04-02T09:54:02.827Z,10.78
2023-04-02T09:56:34.920Z,10.70
2023-04-02T09:59:13.969Z,10.69
2023-04-02T10:01:44.315Z,10.65
2023-04-02T10:04:44.444Z,10.44
2023-04-02T10:07:43.190Z,10.43
2023-04-02T10:10:39.897Z,10.43
2023-04-02T10:13:19.004Z,10.37
2023-04-02T10:16:02.944Z,10.40
2023-04-02T10:18:49.714Z,10.47
2023-04-02T10:21:29.412Z,10.78
2023-04-02T10:23:58.763Z,11.14
2023-04-02T10:26:25.585Z,11.49
2023-04-02T10:29:06.893Z,11.73
2023-04-02T10:31:58.829Z,11.85
2023-04-02T10:34:41.157Z,11.82
2023-04-02T10:37:24.609Z,10.98
2023-04-02T10:39:58.852Z,9.60
2023-04-02T10:42:39.477Z,8.55
2023-04-02T10:45:46.561Z,7.79
2023-04-02T10:48:52.294Z,7.68
2023-04-02T10:51:46.863Z,9.15
2023-04-02T10:54:33.408Z,10.15
2023-04-02T10:57:10.924Z,10.73
2023-04-02T10:59:43.495Z,11.11
2023-04-02T11:02:28.090Z,11.36
2023-04-02T11:05:00.519Z,11.54
2023-04-02T11:07:32.632Z,11.63
2023-04-02T11:10:01.164Z,11.70
2023-04-02T11:12:48.288Z,11.84
2023-04-02T11:15:17.485Z,11.62
2023-04-02T11:17:45.782Z,10.42
2023-04-02T11:20:44.457Z,9.28
2023-04-02T11:23:21.107Z,8.23
2023-04-02T11:25:49.073Z,7.85
2023-04-02T11:28:33.102Z,8.77
2023-04-02T11:31:00.580Z,9.88
2023-04-02T11:33:45.363Z,10.60
2023-04-02T11:36:52.446Z,11.12
2023-04-02T11:39:47.523Z,11.37
2023-04-02T11:42:27.696Z,11.65
2023-04-02T11:44:55.534Z,11.61
2023-04-02T11:47:28.363Z,10.62
2023-04-02T11:49:55.808Z,9.46
2023-04-02T11:52:46.569Z,8.64
2023-04-02T11:55:27.603Z,8.04
2023-04-02T11:58:36.501Z,8.67
2023-04-02T12:01:09.495Z,10.02
2023-04-02T12:03:48.329Z,10.80
2023-04-02T12:06:19.135Z,11.09
2023-04-02T12:09:22.878Z,11.34
2023-04-02T12:11:57.264Z,11.79
2023-04-02T12:14:42.906Z,11.74
2023-04-02T12:17:40.625Z,10.51
2023-04-02T12:20:09.440Z,9.17
2023-04-02T12:22:41.167Z,8.29
2023-04-02T12:25:27.626Z,7.59
2023-04-02T12:28:23.888Z,7.51
2023-04-02T12:31:02.294Z,8.84
2023-04-02T12:33:39.585Z,9.85
2023-04-02T12:36:14.964Z,10.55
2023-04-02T12:38:49.436Z,11.08
2023-04-02T12:41:27.584Z,11.49
2023-04-02T12:44:06.716Z,11.76
2023-04-02T12:46:36.165Z,11.61
2023-04-02T12:49:10.418Z,10.53
2023-04-02T12:51:38.162Z,9.37
2023-04-02T12:54:06.281Z,8.48
2023-04-02T12:56:33.836Z,7.78
2023-04-02T12:59:01.673Z,7.25
2023-04-02T13:01:32.100Z,6.86
2023-04-02T13:04:19.560Z,7.07
2023-04-02T13:06:52.430Z,8.44
2023-04-02T13:09:34.061Z,9.54
2023-04-02T13:12:01.834Z,10.17
2023-04-02T13:14:30.321Z,10.72
2023-04-02T13:16:57.854Z,11.05
2023-04-02T13:19:32.605Z,11.37
2023-04-02T13:22:02.413Z,11.64
2023-04-02T13:24:32.129Z,11.60
2023-04-02T13:27:03.688Z,10.50
2023-04-02T13:29:35.859Z,9.28
2023-04-02T13:32:11.602Z,8.31
2023-04-02T13:34:38.921Z,8.53
2023-04-02T13:37:06.026Z,9.63
2023-04-02T13:39:33.007Z,10.45
2023-04-02T13:42:03.059Z,10.94
2023-04-02T13:44:32.486Z,11.17
2023-04-02T13:47:00.813Z,10.65
2023-04-02T13:49:28.537Z,9.54
2023-04-02T13:52:03.320Z,8.62
2023-04-02T13:54:45.943Z,7.93
2023-04-02T13:57:13.215Z,7.38
2023-04-02T13:59:40.238Z,7.04
2023-04-02T14:02:12.940Z,7.23
2023-04-02T14:04:46.629Z,8.73
2023-04-02T14:07:33.844Z,9.89
2023-04-02T14:10:04.883Z,10.59
2023-04-02T14:12:54.495Z,10.97
2023-04-02T14:15:53.687Z,11.17
2023-04-02T14:18:48.495Z,10.62
2023-04-02T14:22:00.285Z,9.25
2023-04-02T14:25:03.076Z,8.01
2023-04-02T14:27:53.924Z,7.21
2023-04-02T14:30:36.786Z,7.09
2023-04-02T14:33:09.721Z,8.31
2023-04-02T14:35:42.718Z,9.31
2023-04-02T14:38:15.806Z,10.00
2023-04-02T14:40:52.256Z,10.47
2023-04-02T14:43:24.658Z,10.83
2023-04-02T14:46:05.775Z,10.69
2023-04-02T14:48:53.078Z,9.42
2023-04-02T14:51:32.332Z,8.13
2023-04-02T14:53:59.255Z,7.35
2023-04-02T14:56:26.991Z,6.92
2023-04-02T14:59:26.160Z,7.57
2023-04-02T15:02:02.793Z,8.90
2023-04-02T15:04:45.522Z,9.70
2023-04-02T15:07:26.455Z,10.00
2023-04-02T15:10:17.594Z,10.06
2023-04-02T15:12:45.531Z,9.02
2023-04-02T15:15:40.061Z,7.94
2023-04-02T15:18:16.649Z,7.32
2023-04-02T15:20:58.241Z,8.06
2023-04-02T15:23:42.864Z,8.88
2023-04-02T15:26:27.456Z,9.53
2023-04-02T15:29:28.340Z,9.96
2023-04-02T15:32:15.954Z,10.37
2023-04-02T15:35:11.838Z,10.62
2023-04-02T15:37:57.388Z,10.36
2023-04-02T15:40:30.890Z,9.04
2023-04-02T15:43:19.736Z,7.93
2023-04-02T15:46:10.303Z,7.02
2023-04-02T15:49:10.645Z,6.35
2023-04-02T15:52:05.946Z,6.32
2023-04-02T15:55:02.336Z,7.55
2023-04-02T15:57:29.235Z,8.67
2023-04-02T16:00:22.691Z,9.39
2023-04-02T16:03:06.449Z,9.90
2023-04-02T16:06:01.361Z,9.61
2023-04-02T16:08:47.299Z,8.45
2023-04-02T16:11:16.190Z,7.43
2023-04-02T16:13:44.335Z,6.77
2023-04-02T16:16:22.276Z,6.29
2023-04-02T16:19:01.813Z,6.73
2023-04-02T16:21:33.671Z,8.01
2023-04-02T16:24:02.003Z,8.92
2023-04-02T16:26:46.403Z,9.56
2023-04-02T16:29:53.426Z,10.07
2023-04-02T16:32:46.065Z,9.82
2023-04-02T16:35:54.426Z,8.47
2023-04-02T16:38:52.689Z,7.25
2023-04-02T16:41:44.175Z,6.87
2023-04-02T16:44:42.193Z,7.99
2023-04-02T16:47:23.375Z,8.97
2023-04-02T16:49:53.447Z,9.53
2023-04-02T16:52:43.565Z,9.86
2023-04-02T16:55:16.892Z,10.07
2023-04-02T16:58:30.502Z,10.31
2023-04-02T17:01:20.844Z,9.96
2023-04-02T17:04:19.934Z,8.53
2023-04-02T17:06:56.169Z,7.32
2023-04-02T17:09:39.879Z,6.56
2023-04-02T17:12:28.524Z,5.96
2023-04-02T17:15:29.615Z,5.86
2023-04-02T17:18:02.137Z,7.34
2023-04-02T17:20:29.461Z,8.39
2023-04-02T17:22:56.577Z,9.07
2023-04-02T17:25:32.263Z,9.54
2023-04-02T17:27:59.231Z,9.88
2023-04-02T17:30:49.049Z,10.16
2023-04-02T17:33:18.342Z,10.34
2023-04-02T17:36:00.915Z,10.21
2023-04-02T17:38:49.696Z,8.88
2023-04-02T17:41:38.837Z,7.59
2023-04-02T17:44:11.835Z,6.63
2023-04-02T17:47:06.924Z,6.01
2023-04-02T17:50:12.428Z,5.97
2023-04-02T17:52:46.652Z,7.39
2023-04-02T17:55:26.150Z,8.38
2023-04-02T17:58:12.726Z,8.94
2023-04-02T18:00:55.551Z,9.41
2023-04-02T18:03:50.722Z,9.59
2023-04-02T18:06:33.676Z,9.84
2023-04-02T18:09:04.710Z,9.86
2023-04-02T18:11:37.892Z,8.90
2023-04-02T18:14:42.159Z,7.68
2023-04-02T18:17:27.906Z,6.62
2023-04-02T18:20:20.971Z,5.97
2023-04-02T18:23:02.723Z,6.58
2023-04-02T18:25:43.506Z,7.75
2023-04-02T18:28:24.641Z,8.53
2023-04-02T18:31:14.548Z,8.93
2023-04-02T18:34:00.386Z,9.18
2023-04-02T18:36:43.935Z,9.56
2023-04-02T18:39:33.502Z,9.19
2023-04-02T18:42:23.106Z,7.78
2023-04-02T18:45:12.252Z,6.75
2023-04-02T18:47:58.091Z,7.29
2023-04-02T18:50:32.873Z,8.16
2023-04-02T18:53:13.553Z,8.77
2023-04-02T18:55:51.592Z,9.12
2023-04-02T18:58:27.618Z,9.36
2023-04-02T19:00:56.320Z,9.69
2023-04-02T19:03:53.897Z,9.67
2023-04-02T19:06:27.416Z,8.30
2023-04-02T19:09:08.328Z,6.99
2023-04-02T19:11:35.777Z,6.12
2023-04-02T19:14:08.306Z,5.83
2023-04-02T19:17:01.553Z,6.77
2023-04-02T19:19:54.625Z,7.85
2023-04-02T19:22:57.866Z,8.37
2023-04-02T19:25:37.233Z,8.83
2023-04-02T19:28:23.507Z,8.96
2023-04-02T19:31:34.486Z,9.16
2023-04-02T19:34:39.669Z,9.47
2023-04-02T19:37:25.664Z,9.80
2023-04-02T19:40:01.745Z,9.95
2023-04-02T19:42:47.233Z,9.06
2023-04-02T19:45:49.366Z,7.69
2023-04-02T19:48:21.073Z,6.57
2023-04-02T19:50:49.771Z,5.88
2023-04-02T19:53:17.704Z,5.70
2023-04-02T19:55:45.268Z,6.82
2023-04-02T19:58:23.849Z,7.92
2023-04-02T20:00:51.238Z,8.74
2023-04-02T20:03:18.599Z,9.22
2023-04-02T20:05:46.273Z,9.50
2023-04-02T20:08:13.493Z,9.58
2023-04-02T20:10:41.045Z,8.77
2023-04-02T20:13:09.769Z,7.63
2023-04-02T20:15:37.472Z,6.71
2023-04-02T20:18:05.489Z,6.02
2023-04-02T20:20:32.870Z,5.67
2023-04-02T20:23:00.217Z,6.59
2023-04-02T20:25:27.530Z,7.74
2023-04-02T20:27:55.021Z,8.39
2023-04-02T20:30:21.914Z,8.59
2023-04-02T20:32:49.064Z,9.01
2023-04-02T20:35:16.653Z,9.29
2023-04-02T20:37:43.893Z,9.42
2023-04-02T20:40:11.298Z,9.54
2023-04-02T20:42:38.413Z,9.80
2023-04-02T20:45:06.738Z,9.71
2023-04-02T20:47:34.145Z,8.68
2023-04-02T20:50:01.355Z,7.38
2023-04-02T20:52:30.547Z,6.40
2023-04-02T20:54:57.919Z,6.40
2023-04-02T20:57:26.820Z,7.32
2023-04-02T20:59:54.897Z,8.09
2023-04-02T21:02:21.940Z,8.48
2023-04-02T21:04:49.617Z,8.66
2023-04-02T21:07:17.347Z,8.87
2023-04-02T21:09:44.309Z,8.98
2023-04-02T21:12:11.767Z,9.19
2023-04-02T21:14:40.243Z,9.36
2023-04-02T21:17:08.237Z,9.50
2023-04-02T21:19:36.361Z,9.07
2023-04-02T21:22:03.917Z,7.78
